createdAt,value
2023-05-05T00:01:07.376Z,0.85
2023-05-05T00:03:38.597Z,0.82
2023-05-05T00:06:07.412Z,0.77
2023-05-05T00:08:35.794Z,0.52
2023-05-05T00:11:04.026Z,0.80
2023-05-05T00:13:32.338Z,0.70
2023-05-05T00:16:01.218Z,0.80
2023-05-05T00:18:30.431Z,0.88
2023-05-05T00:20:58.651Z,1.00
2023-05-05T00:23:26.904Z,0.60
2023-05-05T00:25:55.289Z,0.73
2023-05-05T00:28:23.583Z,0.55
2023-05-05T00:30:52.092Z,0.70
2023-05-05T00:33:20.452Z,0.65
2023-05-05T00:35:49.086Z,0.60
2023-05-05T00:38:17.618Z,0.98
2023-05-05T00:40:46.112Z,0.90
2023-05-05T00:43:14.937Z,1.00
2023-05-05T00:45:48.526Z,1.17
2023-05-05T00:48:18.712Z,1.20
2023-05-05T00:50:47.128Z,1.17
2023-05-05T00:53:15.459Z,1.20
2023-05-05T00:55:43.824Z,1.20
2023-05-05T00:58:14.156Z,1.33
2023-05-05T01:00:42.738Z,1.20
2023-05-05T01:03:11.307Z,1.30
2023-05-05T01:05:58.073Z,0.90
2023-05-05T01:08:29.369Z,1.02
2023-05-05T01:11:04.127Z,1.33
2023-05-05T01:13:44.231Z,1.20
2023-05-05T01:16:28.130Z,1.00
2023-05-05T01:19:16.555Z,1.20
2023-05-05T01:21:54.754Z,1.00
2023-05-05T01:24:31.427Z,1.17
2023-05-05T01:27:18.004Z,1.08
2023-05-05T01:30:07.650Z,1.20
2023-05-05T01:32:43.757Z,1.30
2023-05-05T01:35:34.172Z,1.20
2023-05-05T01:38:09.241Z,1.38
2023-05-05T01:40:45.206Z,1.27
2023-05-05T01:43:16.298Z,1.10
2023-05-05T01:45:47.140Z,1.30
2023-05-05T01:48:19.730Z,1.30
2023-05-05T01:50:49.909Z,1.10
2023-05-05T01:53:19.916Z,1.00
2023-05-05T01:55:50.569Z,1.27
2023-05-05T01:58:19.329Z,1.42
2023-05-05T02:00:48.798Z,1.15
2023-05-05T02:03:18.415Z,1.10
2023-05-05T02:05:50.360Z,1.20
2023-05-05T02:08:19.823Z,0.85
2023-05-05T02:10:50.376Z,1.08
2023-05-05T02:13:20.704Z,0.93
2023-05-05T02:15:51.826Z,1.20
2023-05-05T02:18:21.370Z,1.27
2023-05-05T02:20:49.782Z,1.40
2023-05-05T02:23:18.055Z,1.10
2023-05-05T02:25:54.340Z,1.30
2023-05-05T02:28:36.281Z,1.55
2023-05-05T02:31:08.261Z,1.20
2023-05-05T02:33:38.420Z,1.25
2023-05-05T02:36:19.391Z,1.20
2023-05-05T02:38:50.824Z,1.23
2023-05-05T02:41:22.296Z,1.10
2023-05-05T02:43:52.501Z,1.30
2023-05-05T02:46:20.734Z,1.60
2023-05-05T02:48:49.293Z,0.90
2023-05-05T02:51:17.508Z,1.00
2023-05-05T02:53:45.791Z,1.10
2023-05-05T02:56:19.748Z,1.23
2023-05-05T02:58:53.978Z,1.13
2023-05-05T03:01:40.451Z,1.23
2023-05-05T03:04:24.845Z,1.23
2023-05-05T03:06:58.537Z,1.20
2023-05-05T03:09:32.092Z,1.40
2023-05-05T03:12:10.456Z,1.30
2023-05-05T03:14:43.137Z,1.40
2023-05-05T03:17:13.714Z,1.23
2023-05-05T03:19:44.238Z,1.35
2023-05-05T03:22:12.980Z,1.60
2023-05-05T03:24:42.030Z,1.52
2023-05-05T03:27:10.264Z,1.52
2023-05-05T03:29:38.580Z,1.27
2023-05-05T03:32:07.474Z,1.20
2023-05-05T03:34:38.210Z,1.25
2023-05-05T03:37:06.449Z,1.50
2023-05-05T03:39:34.686Z,1.05
2023-05-05T03:42:02.897Z,1.05
2023-05-05T03:44:31.418Z,1.27
2023-05-05T03:46:59.607Z,1.25
2023-05-05T03:49:27.853Z,1.20
2023-05-05T03:51:56.403Z,1.27
2023-05-05T03:54:24.610Z,1.20
2023-05-05T03:56:52.786Z,1.45
2023-05-05T03:59:21.101Z,1.35
2023-05-05T04:01:50.732Z,1.40
2023-05-05T04:04:19.089Z,1.20
2023-05-05T04:06:47.439Z,0.93
2023-05-05T04:09:15.716Z,1.05
2023-05-05T04:11:43.933Z,1.17
2023-05-05T04:14:12.242Z,1.17
2023-05-05T04:16:40.602Z,0.95
2023-05-05T04:19:09.301Z,1.20
2023-05-05T04:21:37.564Z,1.20
2023-05-05T04:24:06.010Z,1.33
2023-05-05T04:26:34.295Z,1.20
2023-05-05T04:29:02.542Z,1.25
2023-05-05T04:31:31.567Z,1.40
2023-05-05T04:33:59.807Z,1.40
2023-05-05T04:36:28.298Z,1.00
2023-05-05T04:38:56.547Z,1.20
2023-05-05T04:41:24.843Z,1.40
2023-05-05T04:43:53.860Z,1.27
2023-05-05T04:46:22.746Z,1.25
2023-05-05T04:48:51.046Z,1.48
2023-05-05T04:51:19.243Z,1.20
2023-05-05T04:53:47.541Z,1.48
2023-05-05T04:56:15.888Z,1.42
2023-05-05T04:58:44.139Z,1.38
2023-05-05T05:01:12.363Z,1.25
2023-05-05T05:03:40.638Z,1.30
2023-05-05T05:06:08.890Z,1.20
2023-05-05T05:08:37.422Z,1.45
2023-05-05T05:11:05.649Z,1.67
2023-05-05T05:13:33.910Z,1.30
2023-05-05T05:16:03.155Z,1.15
2023-05-05T05:18:31.398Z,1.48
2023-05-05T05:20:59.649Z,1.17
2023-05-05T05:23:27.894Z,1.40
2023-05-05T05:25:56.716Z,1.40
2023-05-05T05:28:25.020Z,1.33
2023-05-05T05:30:53.708Z,1.20
2023-05-05T05:33:21.995Z,1.20
2023-05-05T05:35:50.210Z,1.63
2023-05-05T05:38:18.775Z,1.80
2023-05-05T05:40:47.278Z,1.30
2023-05-05T05:43:15.543Z,1.20
2023-05-05T05:45:44.024Z,1.02
2023-05-05T05:48:12.353Z,1.70
2023-05-05T05:50:40.641Z,1.40
2023-05-05T05:53:08.850Z,1.58
2023-05-05T05:55:37.079Z,1.30
2023-05-05T05:58:05.282Z,1.30
2023-05-05T06:00:33.516Z,1.40
2023-05-05T06:03:01.918Z,1.33
2023-05-05T06:05:30.296Z,1.40
2023-05-05T06:07:58.553Z,1.50
2023-05-05T06:10:28.381Z,1.15
2023-05-05T06:12:56.914Z,1.38
2023-05-05T06:15:26.421Z,1.50
2023-05-05T06:17:54.828Z,1.77
2023-05-05T06:20:23.889Z,1.45
2023-05-05T06:22:52.079Z,1.63
2023-05-05T06:25:20.271Z,1.40
2023-05-05T06:27:48.807Z,1.63
2023-05-05T06:30:17.177Z,1.58
2023-05-05T06:32:45.422Z,1.50
2023-05-05T06:35:14.129Z,1.50
2023-05-05T06:37:42.347Z,1.50
2023-05-05T06:40:11.377Z,1.42
2023-05-05T06:42:39.619Z,1.50
2023-05-05T06:45:08.415Z,1.27
2023-05-05T06:47:37.257Z,1.30
2023-05-05T06:50:06.000Z,1.50
2023-05-05T06:52:34.493Z,1.50
2023-05-05T06:55:02.845Z,1.73
2023-05-05T06:57:31.096Z,1.50
2023-05-05T06:59:59.382Z,1.55
2023-05-05T07:02:27.585Z,1.60
2023-05-05T07:04:56.280Z,1.90
2023-05-05T07:07:24.612Z,1.63
2023-05-05T07:09:53.037Z,1.55
2023-05-05T07:12:21.261Z,1.60
2023-05-05T07:14:49.776Z,2.10
2023-05-05T07:17:18.015Z,1.50
2023-05-05T07:19:46.325Z,1.70
2023-05-05T07:22:14.726Z,1.65
2023-05-05T07:24:42.970Z,1.67
2023-05-05T07:27:11.512Z,1.60
2023-05-05T07:29:39.704Z,1.73
2023-05-05T07:32:09.781Z,1.67
2023-05-05T07:34:38.876Z,1.70
2023-05-05T07:37:07.721Z,2.00
2023-05-05T07:39:35.890Z,1.90
2023-05-05T07:42:04.084Z,1.92
2023-05-05T07:44:32.589Z,1.75
2023-05-05T07:47:00.894Z,1.75
2023-05-05T07:49:29.137Z,1.80
2023-05-05T07:51:57.419Z,2.10
2023-05-05T07:54:25.612Z,2.03
2023-05-05T07:56:53.845Z,1.77
2023-05-05T07:59:22.487Z,2.10
2023-05-05T08:01:51.131Z,2.20
2023-05-05T08:04:20.318Z,1.88
2023-05-05T08:06:48.841Z,2.25
2023-05-05T08:09:17.116Z,2.05
2023-05-05T08:11:45.297Z,2.10
2023-05-05T08:14:13.532Z,1.90
2023-05-05T08:16:41.763Z,2.13
2023-05-05T08:19:14.847Z,1.80
2023-05-05T08:21:46.137Z,1.67
2023-05-05T08:24:14.624Z,1.75
2023-05-05T08:26:42.846Z,1.88
2023-05-05T08:29:11.044Z,1.90
2023-05-05T08:31:39.293Z,1.90
2023-05-05T08:34:08.085Z,1.88
2023-05-05T08:36:36.340Z,1.83
2023-05-05T08:39:04.620Z,1.90
2023-05-05T08:41:34.089Z,2.10
2023-05-05T08:44:03.017Z,1.75
2023-05-05T08:46:32.580Z,1.80
2023-05-05T08:49:02.403Z,1.70
2023-05-05T08:51:38.513Z,1.80
2023-05-05T08:54:08.066Z,1.90
2023-05-05T08:56:44.530Z,1.80
2023-05-05T08:59:14.488Z,1.77
2023-05-05T09:01:43.815Z,1.80
2023-05-05T09:04:12.407Z,1.73
2023-05-05T09:06:40.906Z,1.77
2023-05-05T09:09:10.381Z,1.70
2023-05-05T09:11:40.171Z,1.90
2023-05-05T09:14:08.394Z,2.08
2023-05-05T09:16:36.642Z,2.08
2023-05-05T09:19:07.806Z,1.92
2023-05-05T09:21:35.989Z,1.63
2023-05-05T09:24:12.450Z,1.80
2023-05-05T09:26:45.933Z,1.90
2023-05-05T09:29:21.525Z,2.03
2023-05-05T09:32:09.221Z,1.88
2023-05-05T09:34:37.553Z,1.77
2023-05-05T09:37:06.781Z,1.70
2023-05-05T09:39:35.046Z,1.58
2023-05-05T09:42:04.025Z,1.67
2023-05-05T09:44:36.805Z,1.75
2023-05-05T09:47:09.548Z,1.70
2023-05-05T09:49:43.317Z,2.03
2023-05-05T09:52:16.449Z,1.80
2023-05-05T09:54:45.571Z,1.52
2023-05-05T09:57:34.978Z,1.50
2023-05-05T10:00:05.223Z,1.42
2023-05-05T10:02:40.141Z,1.83
2023-05-05T10:05:13.606Z,1.33
2023-05-05T10:07:44.185Z,1.20
2023-05-05T10:10:14.868Z,1.33
2023-05-05T10:12:43.550Z,1.40
2023-05-05T10:15:13.177Z,1.40
2023-05-05T10:20:21.952Z,1.80
2023-05-05T10:22:57.315Z,1.40
2023-05-05T10:25:36.385Z,1.50
2023-05-05T10:28:07.987Z,1.50
2023-05-05T10:30:44.104Z,1.30
2023-05-05T10:35:58.177Z,1.60
2023-05-05T10:38:29.827Z,1.40
2023-05-05T10:41:00.386Z,1.35
2023-05-05T10:43:30.411Z,1.48
2023-05-05T10:45:59.259Z,1.40
2023-05-05T10:48:39.057Z,1.30
2023-05-05T10:51:27.435Z,1.50
2023-05-05T10:54:22.088Z,2.20
2023-05-05T10:56:51.001Z,1.80
2023-05-05T10:59:40.475Z,1.40
2023-05-05T11:02:27.586Z,1.67
2023-05-05T11:05:10.104Z,1.45
2023-05-05T11:07:39.163Z,1.48
2023-05-05T11:10:11.695Z,1.40
2023-05-05T11:13:03.278Z,1.40
2023-05-05T11:15:31.506Z,1.40
2023-05-05T11:18:07.088Z,1.25
2023-05-05T11:20:44.164Z,1.15
2023-05-05T11:23:13.461Z,1.30
2023-05-05T11:25:46.221Z,1.15
2023-05-05T11:28:15.604Z,1.48
2023-05-05T11:31:01.778Z,1.40
2023-05-05T11:33:38.512Z,1.50
2023-05-05T11:36:08.685Z,1.35
2023-05-05T11:38:54.474Z,1.40
2023-05-05T11:41:36.905Z,1.50
2023-05-05T11:44:13.275Z,1.52
2023-05-05T11:46:54.305Z,1.30
2023-05-05T11:49:28.681Z,1.50
2023-05-05T11:52:20.583Z,1.50
2023-05-05T11:54:49.932Z,1.48
2023-05-05T11:57:21.932Z,1.42
2023-05-05T12:00:06.564Z,1.73
2023-05-05T12:02:35.964Z,1.80
2023-05-05T12:05:04.952Z,1.33
2023-05-05T12:07:34.624Z,1.45
2023-05-05T12:10:02.935Z,1.60
2023-05-05T12:12:40.724Z,1.67
2023-05-05T12:15:10.696Z,1.55
2023-05-05T12:17:45.656Z,1.63
2023-05-05T12:20:14.374Z,1.50
2023-05-05T12:22:43.116Z,1.30
2023-05-05T12:25:11.768Z,1.48
2023-05-05T12:27:40.178Z,1.50
2023-05-05T12:30:14.614Z,1.83
2023-05-05T12:32:43.330Z,1.67
2023-05-05T12:35:12.670Z,2.15
2023-05-05T12:37:41.530Z,1.60
2023-05-05T12:40:45.296Z,1.77
2023-05-05T12:43:34.192Z,1.70
2023-05-05T12:46:11.436Z,1.90
2023-05-05T12:48:42.346Z,1.70
2023-05-05T12:51:26.448Z,1.70
2023-05-05T12:54:06.029Z,1.60
2023-05-05T12:56:38.751Z,1.92
2023-05-05T12:59:08.902Z,2.05
2023-05-05T13:01:38.715Z,1.92
2023-05-05T13:04:14.061Z,2.08
2023-05-05T13:06:44.865Z,1.90
2023-05-05T13:09:37.166Z,1.98
2023-05-05T13:12:05.887Z,2.08
2023-05-05T13:14:34.453Z,1.95
2023-05-05T13:17:02.789Z,1.73
2023-05-05T13:19:31.740Z,2.15
2023-05-05T13:22:00.305Z,1.90
2023-05-05T13:24:38.141Z,1.83
2023-05-05T13:27:15.354Z,2.00
2023-05-05T13:29:44.650Z,2.25
2023-05-05T13:32:13.027Z,2.17
2023-05-05T13:34:41.322Z,2.20
2023-05-05T13:37:09.610Z,2.13
2023-05-05T13:39:37.839Z,2.13
2023-05-05T13:42:06.178Z,2.30
2023-05-05T13:44:34.429Z,2.40
2023-05-05T13:47:02.747Z,1.90
2023-05-05T13:49:30.967Z,1.88
2023-05-05T13:51:59.413Z,2.03
2023-05-05T13:54:27.606Z,2.00
2023-05-05T13:56:55.800Z,1.95
2023-05-05T13:59:24.144Z,2.05
2023-05-05T14:01:52.383Z,1.75
2023-05-05T14:04:20.687Z,1.60
2023-05-05T14:06:49.167Z,1.90
2023-05-05T14:09:17.475Z,1.90
2023-05-05T14:11:45.774Z,1.70
2023-05-05T14:14:14.080Z,1.80
2023-05-05T14:16:42.301Z,1.77
2023-05-05T14:19:10.548Z,1.35
2023-05-05T14:21:39.077Z,1.40
2023-05-05T14:24:07.598Z,1.70
2023-05-05T14:26:35.801Z,1.73
2023-05-05T14:29:04.116Z,1.60
2023-05-05T14:31:32.607Z,1.58
2023-05-05T14:34:00.788Z,1.50
2023-05-05T14:36:29.083Z,1.45
2023-05-05T14:38:57.342Z,1.83
2023-05-05T14:41:25.820Z,1.42
2023-05-05T14:43:54.099Z,1.98
2023-05-05T14:46:22.631Z,1.80
2023-05-05T14:48:50.882Z,2.08
2023-05-05T14:51:19.203Z,1.77
2023-05-05T14:53:47.963Z,1.80
2023-05-05T14:56:16.441Z,1.83
2023-05-05T14:58:44.948Z,1.80
2023-05-05T15:01:13.184Z,1.80
2023-05-05T15:03:41.680Z,1.70
2023-05-05T15:06:10.232Z,1.85
2023-05-05T15:08:39.820Z,2.00
2023-05-05T15:11:08.129Z,1.85
2023-05-05T15:13:36.452Z,2.00
2023-05-05T15:16:04.828Z,2.00
2023-05-05T15:18:33.127Z,2.35
2023-05-05T15:21:01.382Z,2.10
2023-05-05T15:23:29.710Z,2.35
2023-05-05T15:25:58.229Z,1.98
2023-05-05T15:28:26.569Z,2.00
2023-05-05T15:30:54.972Z,2.30
2023-05-05T15:33:23.299Z,2.20
2023-05-05T15:35:51.530Z,2.40
2023-05-05T15:38:19.750Z,2.10
2023-05-05T15:40:50.178Z,1.85
2023-05-05T15:43:18.716Z,2.20
2023-05-05T15:45:47.332Z,1.85
2023-05-05T15:48:15.571Z,1.90
2023-05-05T15:50:43.864Z,1.80
2023-05-05T15:53:12.278Z,2.33
2023-05-05T15:55:41.544Z,2.40
2023-05-05T15:58:09.839Z,1.75
2023-05-05T16:00:38.065Z,1.83
2023-05-05T16:03:06.624Z,1.70
2023-05-05T16:05:34.892Z,2.08
2023-05-05T16:08:05.610Z,1.80
2023-05-05T16:10:33.820Z,1.80
2023-05-05T16:13:02.018Z,1.50
2023-05-05T16:15:30.295Z,1.50
2023-05-05T16:17:58.533Z,1.60
2023-05-05T16:20:26.786Z,1.45
2023-05-05T16:22:54.981Z,1.80
2023-05-05T16:25:24.313Z,1.60
2023-05-05T16:27:54.035Z,1.50
2023-05-05T16:30:22.354Z,1.50
2023-05-05T16:32:52.541Z,1.90
2023-05-05T16:35:20.971Z,1.70
2023-05-05T16:37:49.764Z,1.73
2023-05-05T16:40:17.939Z,1.40
2023-05-05T16:42:46.291Z,1.60
2023-05-05T16:45:14.716Z,1.60
2023-05-05T16:47:42.965Z,1.13
2023-05-05T16:50:11.622Z,1.30
2023-05-05T16:52:39.901Z,1.38
2023-05-05T16:55:08.516Z,1.52
2023-05-05T16:57:36.879Z,1.70
2023-05-05T17:00:10.123Z,1.48
2023-05-05T17:02:38.376Z,1.65
2023-05-05T17:05:07.268Z,1.30
2023-05-05T17:07:35.670Z,1.20
2023-05-05T17:10:03.996Z,1.35
2023-05-05T17:12:32.294Z,1.83
2023-05-05T17:15:00.729Z,1.20
2023-05-05T17:17:29.181Z,1.10
2023-05-05T17:19:57.478Z,1.30
2023-05-05T17:22:25.684Z,1.35
2023-05-05T17:24:53.904Z,0.90
2023-05-05T17:27:22.272Z,1.38
2023-05-05T17:29:50.511Z,1.10
2023-05-05T17:32:18.739Z,1.17
2023-05-05T17:34:47.306Z,1.30
2023-05-05T17:37:15.535Z,1.42
2023-05-05T17:39:43.715Z,1.20
2023-05-05T17:42:12.023Z,1.33
2023-05-05T17:44:40.286Z,1.35
2023-05-05T17:47:09.333Z,0.90
2023-05-05T17:49:37.584Z,1.20
2023-05-05T17:52:06.028Z,1.67
2023-05-05T17:54:34.281Z,1.00
2023-05-05T17:57:03.227Z,1.00
2023-05-05T17:59:32.964Z,1.13
2023-05-05T18:02:01.246Z,1.08
2023-05-05T18:04:29.446Z,0.98
2023-05-05T18:06:58.415Z,1.10
2023-05-05T18:09:27.528Z,1.20
2023-05-05T18:11:56.390Z,0.98
2023-05-05T18:14:25.506Z,0.80
2023-05-05T18:16:54.132Z,0.88
2023-05-05T18:19:24.410Z,1.20
2023-05-05T18:21:55.280Z,1.17
2023-05-05T18:24:23.545Z,1.10
2023-05-05T18:26:53.243Z,1.20
2023-05-05T18:29:22.690Z,1.20
2023-05-05T18:31:53.751Z,1.20
2023-05-05T18:34:22.374Z,1.08
2023-05-05T18:36:54.956Z,0.90
2023-05-05T18:39:23.224Z,0.90
2023-05-05T18:41:51.693Z,0.95
2023-05-05T18:44:20.982Z,1.15
2023-05-05T18:46:49.749Z,1.23
2023-05-05T18:49:18.141Z,1.20
2023-05-05T18:51:46.561Z,1.20
2023-05-05T18:54:14.786Z,0.80
2023-05-05T18:56:43.435Z,0.90
2023-05-05T18:59:11.665Z,0.80
2023-05-05T19:01:39.976Z,0.90
2023-05-05T19:04:18.822Z,0.88
2023-05-05T19:06:55.300Z,1.00
2023-05-05T19:09:23.494Z,0.85
2023-05-05T19:11:51.824Z,0.90
2023-05-05T19:14:20.043Z,1.15
2023-05-05T19:16:48.836Z,0.80
2023-05-05T19:19:17.074Z,1.10
2023-05-05T19:21:45.377Z,0.70
2023-05-05T19:24:13.666Z,0.80
2023-05-05T19:26:41.921Z,0.90
2023-05-05T19:29:10.140Z,1.00
2023-05-05T19:31:38.387Z,1.10
2023-05-05T19:34:07.076Z,1.10
2023-05-05T19:36:35.693Z,0.90
2023-05-05T19:39:05.652Z,1.00
2023-05-05T19:41:35.981Z,0.75
2023-05-05T19:44:04.220Z,1.15
2023-05-05T19:46:32.603Z,0.88
2023-05-05T19:49:00.858Z,0.75
2023-05-05T19:51:29.242Z,0.90
2023-05-05T19:53:57.509Z,1.20
2023-05-05T19:56:25.839Z,1.13
2023-05-05T19:58:59.675Z,1.08
2023-05-05T20:01:29.188Z,0.73
2023-05-05T20:03:58.126Z,0.77
2023-05-05T20:06:26.505Z,1.00
2023-05-05T20:08:56.003Z,0.70
2023-05-05T20:11:24.497Z,0.63
2023-05-05T20:13:53.825Z,0.90
2023-05-05T20:16:22.725Z,0.70
2023-05-05T20:18:51.847Z,0.80
2023-05-05T20:21:20.617Z,0.63
2023-05-05T20:23:49.430Z,0.82
2023-05-05T20:26:17.941Z,1.02
2023-05-05T20:28:46.686Z,0.60
2023-05-05T20:31:15.955Z,0.70
2023-05-05T20:33:44.282Z,0.60
2023-05-05T20:36:12.726Z,0.90
2023-05-05T20:38:41.078Z,0.70
2023-05-05T20:41:09.286Z,0.88
2023-05-05T20:43:37.986Z,0.60
2023-05-05T20:46:06.239Z,0.80
2023-05-05T20:48:34.421Z,0.85
2023-05-05T20:51:05.809Z,0.90
2023-05-05T20:53:34.303Z,0.90
2023-05-05T20:56:02.745Z,0.70
2023-05-05T20:58:31.423Z,0.70
2023-05-05T21:00:59.654Z,1.00
2023-05-05T21:03:27.942Z,0.80
2023-05-05T21:05:56.457Z,0.73
2023-05-05T21:08:24.687Z,0.60
2023-05-05T21:10:52.876Z,0.63
2023-05-05T21:13:21.194Z,1.00
2023-05-05T21:15:51.275Z,0.80
2023-05-05T21:18:19.521Z,0.80
2023-05-05T21:20:48.105Z,0.70
2023-05-05T21:23:16.300Z,0.60
2023-05-05T21:25:44.529Z,0.70
2023-05-05T21:28:12.770Z,0.68
2023-05-05T21:30:41.067Z,0.80
2023-05-05T21:33:09.616Z,0.80
2023-05-05T21:35:37.942Z,0.70
2023-05-05T21:38:06.373Z,0.73
2023-05-05T21:40:34.629Z,0.90
2023-05-05T21:43:02.834Z,0.88
2023-05-05T21:45:31.152Z,0.65
2023-05-05T21:47:59.484Z,0.80
2023-05-05T21:50:28.912Z,0.90
2023-05-05T21:52:57.805Z,0.70
2023-05-05T21:55:26.241Z,0.90
2023-05-05T21:57:54.465Z,0.82
2023-05-05T22:00:22.784Z,0.88
2023-05-05T22:02:51.145Z,1.00
2023-05-05T22:05:19.420Z,1.10
2023-05-05T22:07:47.830Z,1.00
2023-05-05T22:10:16.188Z,0.90
2023-05-05T22:12:44.502Z,0.85
2023-05-05T22:15:12.863Z,0.90
2023-05-05T22:17:41.806Z,1.00
2023-05-05T22:20:10.634Z,1.05
2023-05-05T22:22:39.021Z,0.90
2023-05-05T22:25:08.156Z,0.95
2023-05-05T22:27:36.640Z,0.85
2023-05-05T22:30:05.299Z,0.60
2023-05-05T22:32:33.852Z,0.80
2023-05-05T22:35:02.267Z,1.00
2023-05-05T22:37:30.584Z,0.68
2023-05-05T22:39:58.890Z,0.70
2023-05-05T22:42:27.653Z,0.90
2023-05-05T22:44:55.835Z,0.98
2023-05-05T22:47:24.149Z,0.90
2023-05-05T22:49:52.488Z,1.15
2023-05-05T22:52:20.819Z,0.98
2023-05-05T22:54:49.419Z,1.02
2023-05-05T22:57:17.686Z,1.20
2023-05-05T22:59:45.897Z,1.08
2023-05-05T23:02:14.444Z,1.55
2023-05-05T23:04:43.764Z,0.90
2023-05-05T23:07:15.093Z,1.10
2023-05-05T23:09:43.313Z,1.40
2023-05-05T23:12:11.651Z,1.00
2023-05-05T23:14:40.190Z,0.90
2023-05-05T23:17:08.501Z,0.90
2023-05-05T23:19:37.412Z,1.02
2023-05-05T23:22:05.946Z,0.70
2023-05-05T23:24:34.253Z,1.05
2023-05-05T23:27:03.101Z,1.00
2023-05-05T23:29:31.736Z,1.02
2023-05-05T23:32:00.168Z,0.88
2023-05-05T23:34:28.504Z,1.30
2023-05-05T23:36:56.926Z,1.30
2023-05-05T23:39:25.221Z,1.00
2023-05-05T23:41:53.588Z,0.82
2023-05-05T23:44:21.945Z,0.80
2023-05-05T23:46:50.180Z,0.90
2023-05-05T23:49:18.482Z,0.98
2023-05-05T23:51:47.552Z,1.10
2023-05-05T23:54:16.254Z,1.10
2023-05-05T23:56:44.589Z,0.93
2023-05-05T23:59:12.823Z,0.95
